createdAt,value
2023-04-14T00:00:22.566Z,4.69
2023-04-14T00:02:50.834Z,4.73
2023-04-14T00:05:20.420Z,4.71
2023-04-14T00:07:48.098Z,4.64
2023-04-14T00:10:15.860Z,4.66
2023-04-14T00:12:43.460Z,4.68
2023-04-14T00:15:11.902Z,4.63
2023-04-14T00:17:39.506Z,4.74
2023-04-14T00:20:09.751Z,4.83
2023-04-14T00:22:38.660Z,4.85
2023-04-14T00:25:07.130Z,4.88
2023-04-14T00:27:34.740Z,4.90
2023-04-14T00:30:02.273Z,4.83
2023-04-14T00:32:29.905Z,4.76
2023-04-14T00:35:00.000Z,4.66
2023-04-14T00:37:27.681Z,4.64
2023-04-14T00:39:56.575Z,4.62
2023-04-14T00:42:25.061Z,4.58
2023-04-14T00:44:52.658Z,4.63
2023-04-14T00:47:22.881Z,4.64
2023-04-14T00:49:50.974Z,4.50
2023-04-14T00:52:18.638Z,4.53
2023-04-14T00:54:46.174Z,4.35
2023-04-14T00:57:15.441Z,4.27
2023-04-14T00:59:43.155Z,4.23
2023-04-14T01:02:11.106Z,4.33
2023-04-14T01:04:52.933Z,4.33
2023-04-14T01:07:21.971Z,4.33
2023-04-14T01:09:49.708Z,4.35
2023-04-14T01:12:29.661Z,4.52
2023-04-14T01:15:03.452Z,4.50
2023-04-14T01:17:36.092Z,4.54
2023-04-14T01:20:13.584Z,4.58
2023-04-14T01:22:46.736Z,4.48
2023-04-14T01:25:46.038Z,4.43
2023-04-14T01:28:28.307Z,4.48
2023-04-14T01:31:08.943Z,4.46
2023-04-14T01:33:39.532Z,4.46
2023-04-14T01:36:09.948Z,4.47
2023-04-14T01:38:38.790Z,4.35
2023-04-14T01:41:09.316Z,4.27
2023-04-14T01:43:39.633Z,4.18
2023-04-14T01:46:13.473Z,4.17
2023-04-14T01:48:41.725Z,4.20
2023-04-14T01:51:09.889Z,4.16
2023-04-14T01:53:39.598Z,4.12
2023-04-14T01:58:37.429Z,4.14
2023-04-14T02:01:06.276Z,4.13
2023-04-14T02:03:36.337Z,4.08
2023-04-14T02:06:05.370Z,4.14
2023-04-14T02:08:33.861Z,4.19
2023-04-14T02:11:01.704Z,4.24
2023-04-14T02:13:29.954Z,4.22
2023-04-14T02:15:58.950Z,4.19
2023-04-14T02:18:27.025Z,4.16
2023-04-14T02:20:57.037Z,4.28
2023-04-14T02:23:24.682Z,4.25
2023-04-14T02:25:56.090Z,4.12
2023-04-14T02:28:27.386Z,4.05
2023-04-14T02:30:57.524Z,3.96
2023-04-14T02:33:30.629Z,4.03
2023-04-14T02:36:03.129Z,4.07
2023-04-14T02:38:34.836Z,4.08
2023-04-14T02:41:08.643Z,4.04
2023-04-14T02:43:42.808Z,4.08
2023-04-14T02:46:10.664Z,3.94
2023-04-14T02:48:39.327Z,3.96
2023-04-14T02:51:09.572Z,3.77
2023-04-14T02:53:37.291Z,3.71
2023-04-14T02:56:05.476Z,3.87
2023-04-14T02:58:33.261Z,3.91
2023-04-14T03:01:01.842Z,3.98
2023-04-14T03:03:30.330Z,3.96
2023-04-14T03:05:58.193Z,4.00
2023-04-14T03:08:28.181Z,3.98
2023-04-14T03:10:56.072Z,3.97
2023-04-14T03:13:27.614Z,4.06
2023-04-14T03:15:55.967Z,4.05
2023-04-14T03:18:23.728Z,3.95
2023-04-14T03:20:53.027Z,4.02
2023-04-14T03:23:21.905Z,4.03
2023-04-14T03:25:51.500Z,4.04
2023-04-14T03:28:22.783Z,3.97
2023-04-14T03:30:52.590Z,3.85
2023-04-14T03:33:24.063Z,3.99
2023-04-14T03:35:54.150Z,3.99
2023-04-14T03:38:23.671Z,3.99
2023-04-14T03:40:53.515Z,3.95
2023-04-14T03:43:23.589Z,3.88
2023-04-14T03:45:51.973Z,3.85
2023-04-14T03:48:21.331Z,3.89
2023-04-14T03:50:51.560Z,3.82
2023-04-14T03:53:20.437Z,3.85
2023-04-14T03:55:49.322Z,3.83
2023-04-14T03:58:18.561Z,3.73
2023-04-14T04:00:46.414Z,3.71
2023-04-14T04:03:15.250Z,3.75
2023-04-14T04:05:44.234Z,3.76
2023-04-14T04:08:12.465Z,3.65
2023-04-14T04:10:40.607Z,3.76
2023-04-14T04:13:11.453Z,3.80
2023-04-14T04:15:42.484Z,3.73
2023-04-14T04:18:11.573Z,3.65
2023-04-14T04:20:39.555Z,3.54
2023-04-14T04:23:08.407Z,3.50
2023-04-14T04:25:37.445Z,3.43
2023-04-14T04:28:05.375Z,3.53
2023-04-14T04:30:33.579Z,3.59
2023-04-14T04:33:04.696Z,3.58
2023-04-14T04:35:32.801Z,3.69
2023-04-14T04:38:01.872Z,3.43
2023-04-14T04:40:30.928Z,3.31
2023-04-14T04:42:58.486Z,3.30
2023-04-14T04:45:45.453Z,3.30
2023-04-14T04:48:14.333Z,3.39
2023-04-14T04:50:42.583Z,3.44
2023-04-14T04:53:12.079Z,3.41
2023-04-14T04:55:39.669Z,3.41
2023-04-14T04:58:07.222Z,3.28
2023-04-14T05:00:35.197Z,3.21
2023-04-14T05:03:02.960Z,3.29
2023-04-14T05:05:36.463Z,3.45
2023-04-14T05:08:04.101Z,3.51
2023-04-14T05:10:35.266Z,3.58
2023-04-14T05:13:02.883Z,3.57
2023-04-14T05:15:30.512Z,3.64
2023-04-14T05:17:59.133Z,3.61
2023-04-14T05:20:26.814Z,3.64
2023-04-14T05:22:56.220Z,3.55
2023-04-14T05:25:23.786Z,3.66
2023-04-14T05:27:51.374Z,3.81
2023-04-14T05:30:19.000Z,3.84
2023-04-14T05:32:46.696Z,3.92
2023-04-14T05:35:14.338Z,3.92
2023-04-14T05:37:42.071Z,4.05
2023-04-14T05:40:12.287Z,4.04
2023-04-14T05:42:41.819Z,4.08
2023-04-14T05:45:10.818Z,4.09
2023-04-14T05:47:39.614Z,4.10
2023-04-14T05:50:08.799Z,4.10
2023-04-14T05:52:36.500Z,4.22
2023-04-14T05:55:04.247Z,4.19
2023-04-14T05:57:33.373Z,4.07
2023-04-14T06:00:00.993Z,4.22
2023-04-14T06:02:28.779Z,4.22
2023-04-14T06:04:57.358Z,4.25
2023-04-14T06:07:25.268Z,4.47
2023-04-14T06:09:52.836Z,4.49
2023-04-14T06:12:20.916Z,4.46
2023-04-14T06:14:49.901Z,4.48
2023-04-14T06:17:17.666Z,4.64
2023-04-14T06:19:46.895Z,4.58
2023-04-14T06:22:19.312Z,4.70
2023-04-14T06:24:47.070Z,4.83
2023-04-14T06:27:15.203Z,4.87
2023-04-14T06:29:42.857Z,4.94
2023-04-14T06:32:11.949Z,4.92
2023-04-14T06:34:39.581Z,5.14
2023-04-14T06:37:07.220Z,5.16
2023-04-14T06:39:34.889Z,5.40
2023-04-14T06:42:02.799Z,5.39
2023-04-14T06:44:30.772Z,5.52
2023-04-14T06:47:00.315Z,5.51
2023-04-14T06:49:29.435Z,5.58
2023-04-14T06:51:57.244Z,5.72
2023-04-14T06:54:25.068Z,5.75
2023-04-14T06:56:52.688Z,5.90
2023-04-14T06:59:23.145Z,5.90
2023-04-14T07:01:51.080Z,6.01
2023-04-14T07:04:19.372Z,6.22
2023-04-14T07:06:48.719Z,6.27
2023-04-14T07:09:16.819Z,6.26
2023-04-14T07:11:46.248Z,6.19
2023-04-14T07:14:14.363Z,6.32
2023-04-14T07:16:42.278Z,6.52
2023-04-14T07:19:10.119Z,6.53
2023-04-14T07:21:38.156Z,6.70
2023-04-14T07:24:09.589Z,6.75
2023-04-14T07:26:37.626Z,6.94
2023-04-14T07:29:06.052Z,6.84
2023-04-14T07:31:35.707Z,6.87
2023-04-14T07:34:03.419Z,6.93
2023-04-14T07:36:31.748Z,7.03
2023-04-14T07:38:59.583Z,7.24
2023-04-14T07:41:28.865Z,7.26
2023-04-14T07:43:59.279Z,7.45
2023-04-14T07:46:27.654Z,7.52
2023-04-14T07:48:55.724Z,7.70
2023-04-14T07:51:23.295Z,7.63
2023-04-14T07:53:53.015Z,7.83
2023-04-14T07:56:20.581Z,7.95
2023-04-14T07:58:49.768Z,7.91
2023-04-14T08:01:18.024Z,8.03
2023-04-14T08:03:46.257Z,8.14
2023-04-14T08:06:14.064Z,8.31
2023-04-14T08:08:42.839Z,8.48
2023-04-14T08:11:12.369Z,8.61
2023-04-14T08:13:40.389Z,8.61
2023-04-14T08:16:09.527Z,8.72
2023-04-14T08:18:37.977Z,8.85
2023-04-14T08:21:05.823Z,8.95
2023-04-14T08:23:33.601Z,9.10
2023-04-14T08:26:01.282Z,9.21
2023-04-14T08:28:29.151Z,9.27
2023-04-14T08:30:57.536Z,9.27
2023-04-14T08:33:26.529Z,9.43
2023-04-14T08:35:58.422Z,9.51
2023-04-14T08:38:27.982Z,9.41
2023-04-14T08:40:58.282Z,9.53
2023-04-14T08:43:26.053Z,9.79
2023-04-14T08:45:54.667Z,9.95
2023-04-14T08:48:25.504Z,10.03
2023-04-14T08:51:02.327Z,10.08
2023-04-14T08:53:31.096Z,10.02
2023-04-14T08:56:01.601Z,10.27
2023-04-14T08:58:29.500Z,10.39
2023-04-14T09:00:57.287Z,10.49
2023-04-14T09:03:25.510Z,10.61
2023-04-14T09:05:54.843Z,10.70
2023-04-14T09:08:22.625Z,10.80
2023-04-14T09:10:51.375Z,10.60
2023-04-14T09:13:22.953Z,10.61
2023-04-14T09:15:50.918Z,10.53
2023-04-14T09:18:18.532Z,10.45
2023-04-14T09:20:47.909Z,10.64
2023-04-14T09:23:37.975Z,10.97
2023-04-14T09:26:09.148Z,10.53
2023-04-14T09:28:36.983Z,10.42
2023-04-14T09:31:05.047Z,10.79
2023-04-14T09:33:34.056Z,10.65
2023-04-14T09:36:01.724Z,10.73
2023-04-14T09:38:33.832Z,11.00
2023-04-14T09:41:03.897Z,11.09
2023-04-14T09:43:31.760Z,11.36
2023-04-14T09:46:05.791Z,11.53
2023-04-14T09:48:34.750Z,11.76
2023-04-14T09:51:05.711Z,11.74
2023-04-14T09:53:34.665Z,11.81
2023-04-14T09:56:05.225Z,11.77
2023-04-14T09:58:34.643Z,11.89
2023-04-14T10:01:04.604Z,12.21
2023-04-14T10:03:37.940Z,12.27
2023-04-14T10:06:09.789Z,12.06
2023-04-14T10:08:42.811Z,12.22
2023-04-14T10:11:20.257Z,12.45
2023-04-14T10:13:48.835Z,12.61
2023-04-14T10:16:16.866Z,12.91
2023-04-14T10:18:44.718Z,12.97
2023-04-14T10:21:12.587Z,13.13
2023-04-14T10:23:41.298Z,12.68
2023-04-14T10:26:10.371Z,13.06
2023-04-14T10:28:42.052Z,12.95
2023-04-14T10:31:14.175Z,13.06
2023-04-14T10:33:42.175Z,13.00
2023-04-14T10:36:10.463Z,12.56
2023-04-14T10:38:42.201Z,12.40
2023-04-14T10:41:10.623Z,12.21
2023-04-14T10:43:40.341Z,12.54
2023-04-14T10:46:09.723Z,12.74
2023-04-14T10:48:39.680Z,13.15
2023-04-14T10:51:08.987Z,13.01
2023-04-14T10:53:40.857Z,13.30
2023-04-14T10:56:08.487Z,13.82
2023-04-14T10:58:37.652Z,13.73
2023-04-14T11:01:26.872Z,13.85
2023-04-14T11:03:55.790Z,13.86
2023-04-14T11:06:52.305Z,13.69
2023-04-14T11:09:24.732Z,13.76
2023-04-14T11:11:52.766Z,14.04
2023-04-14T11:14:26.920Z,14.28
2023-04-14T11:17:03.818Z,14.33
2023-04-14T11:19:33.019Z,14.19
2023-04-14T11:22:00.583Z,14.43
2023-04-14T11:24:29.603Z,14.65
2023-04-14T11:26:57.742Z,13.94
2023-04-14T11:29:25.411Z,13.74
2023-04-14T11:32:05.347Z,14.20
2023-04-14T11:34:33.364Z,14.49
2023-04-14T11:37:03.062Z,14.44
2023-04-14T11:39:30.839Z,14.01
2023-04-14T11:42:00.206Z,14.51
2023-04-14T11:44:28.110Z,14.83
2023-04-14T11:46:55.703Z,14.51
2023-04-14T11:49:35.989Z,14.64
2023-04-14T11:52:08.168Z,13.93
2023-04-14T11:54:37.091Z,13.44
2023-04-14T11:57:09.931Z,13.37
2023-04-14T11:59:42.605Z,13.97
2023-04-14T12:02:16.955Z,13.96
2023-04-14T12:04:46.900Z,14.35
2023-04-14T12:07:16.911Z,14.78
2023-04-14T12:09:48.889Z,14.43
2023-04-14T12:12:17.910Z,14.39
2023-04-14T12:14:46.865Z,14.71
2023-04-14T12:17:15.322Z,14.49
2023-04-14T12:19:43.304Z,14.22
2023-04-14T12:22:12.618Z,14.58
2023-04-14T12:24:41.787Z,14.89
2023-04-14T12:27:10.402Z,15.13
2023-04-14T12:29:38.130Z,15.10
2023-04-14T12:32:11.483Z,14.79
2023-04-14T12:34:39.349Z,15.03
2023-04-14T12:37:10.650Z,15.00
2023-04-14T12:39:52.943Z,15.27
2023-04-14T12:42:20.718Z,15.24
2023-04-14T12:44:58.944Z,14.65
2023-04-14T12:47:30.869Z,14.80
2023-04-14T12:49:59.437Z,14.48
2023-04-14T12:52:34.578Z,14.32
2023-04-14T12:55:04.791Z,14.75
2023-04-14T12:57:33.518Z,14.66
2023-04-14T13:00:02.176Z,15.29
2023-04-14T13:02:30.453Z,15.43
2023-04-14T13:04:58.935Z,15.07
2023-04-14T13:07:26.594Z,15.40
2023-04-14T13:09:54.226Z,15.80
2023-04-14T13:12:23.189Z,15.69
2023-04-14T13:14:50.934Z,15.71
2023-04-14T13:17:18.576Z,15.31
2023-04-14T13:19:46.565Z,15.34
2023-04-14T13:22:14.924Z,15.24
2023-04-14T13:24:42.513Z,14.85
2023-04-14T13:27:11.568Z,15.00
2023-04-14T13:29:42.207Z,15.06
2023-04-14T13:32:10.859Z,15.32
2023-04-14T13:34:38.880Z,15.37
2023-04-14T13:37:06.782Z,15.59
2023-04-14T13:39:34.358Z,15.51
2023-04-14T13:42:02.014Z,15.92
2023-04-14T13:44:30.617Z,16.02
2023-04-14T13:46:59.609Z,15.70
2023-04-14T13:49:27.272Z,15.61
2023-04-14T13:51:54.927Z,15.97
2023-04-14T13:54:22.653Z,15.60
2023-04-14T13:56:51.544Z,15.75
2023-04-14T13:59:19.209Z,15.93
2023-04-14T14:01:46.988Z,16.26
2023-04-14T14:04:16.161Z,16.01
2023-04-14T14:06:43.849Z,16.08
2023-04-14T14:09:11.442Z,16.10
2023-04-14T14:11:42.023Z,15.79
2023-04-14T14:14:09.613Z,15.21
2023-04-14T14:16:37.584Z,15.78
2023-04-14T14:19:07.257Z,15.67
2023-04-14T14:21:36.695Z,15.83
2023-04-14T14:24:04.651Z,15.65
2023-04-14T14:26:32.577Z,15.65
2023-04-14T14:29:00.258Z,15.58
2023-04-14T14:31:28.032Z,15.75
2023-04-14T14:33:55.965Z,15.51
2023-04-14T14:36:23.606Z,15.63
2023-04-14T14:38:52.555Z,15.59
2023-04-14T14:41:20.692Z,15.68
2023-04-14T14:43:48.345Z,15.71
2023-04-14T14:46:17.030Z,15.68
2023-04-14T14:48:45.120Z,15.53
2023-04-14T14:51:12.966Z,15.76
2023-04-14T14:53:40.789Z,15.76
2023-04-14T14:56:10.386Z,15.67
2023-04-14T14:58:38.495Z,15.86
2023-04-14T15:01:07.129Z,15.72
2023-04-14T15:03:35.411Z,15.62
2023-04-14T15:06:03.623Z,15.75
2023-04-14T15:08:31.998Z,15.70
2023-04-14T15:10:59.997Z,15.32
2023-04-14T15:13:30.241Z,15.12
2023-04-14T15:15:58.620Z,15.35
2023-04-14T15:18:26.608Z,15.59
2023-04-14T15:20:54.842Z,15.58
2023-04-14T15:23:22.623Z,15.57
2023-04-14T15:25:50.548Z,15.38
2023-04-14T15:28:18.494Z,15.50
2023-04-14T15:30:47.573Z,15.10
2023-04-14T15:33:15.346Z,15.15
2023-04-14T15:35:43.248Z,15.11
2023-04-14T15:38:11.237Z,14.96
2023-04-14T15:40:39.623Z,15.01
2023-04-14T15:43:07.868Z,14.98
2023-04-14T15:45:35.479Z,15.04
2023-04-14T15:48:04.939Z,15.08
2023-04-14T15:50:32.557Z,15.24
2023-04-14T15:53:00.682Z,15.00
2023-04-14T15:55:28.435Z,15.08
2023-04-14T15:57:56.394Z,14.90
2023-04-14T16:00:24.318Z,14.77
2023-04-14T16:02:52.364Z,14.58
2023-04-14T16:05:21.538Z,14.58
2023-04-14T16:07:49.220Z,14.85
2023-04-14T16:10:16.842Z,14.66
2023-04-14T16:12:44.477Z,14.47
2023-04-14T16:15:12.392Z,14.51
2023-04-14T16:17:40.013Z,14.63
2023-04-14T16:20:08.198Z,14.75
2023-04-14T16:22:37.165Z,14.84
2023-04-14T16:25:05.754Z,14.67
2023-04-14T16:27:33.588Z,14.61
2023-04-14T16:30:01.656Z,14.67
2023-04-14T16:32:29.618Z,14.67
2023-04-14T16:34:57.792Z,14.63
2023-04-14T16:37:26.583Z,14.60
2023-04-14T16:39:56.441Z,14.31
2023-04-14T16:42:25.073Z,14.40
2023-04-14T16:44:52.843Z,14.29
2023-04-14T16:47:21.786Z,14.04
2023-04-14T16:49:51.519Z,14.07
2023-04-14T16:52:19.204Z,14.11
2023-04-14T16:54:46.847Z,14.40
2023-04-14T16:57:16.495Z,14.23
2023-04-14T16:59:46.069Z,14.07
2023-04-14T17:02:13.879Z,14.09
2023-04-14T17:04:41.681Z,14.06
2023-04-14T17:07:09.299Z,13.88
2023-04-14T17:09:36.918Z,14.05
2023-04-14T17:12:04.608Z,14.05
2023-04-14T17:14:34.113Z,13.81
2023-04-14T17:17:02.763Z,13.70
2023-04-14T17:19:30.487Z,13.72
2023-04-14T17:21:58.157Z,13.69
2023-04-14T17:24:26.625Z,13.73
2023-04-14T17:26:55.595Z,13.71
2023-04-14T17:29:23.151Z,13.53
2023-04-14T17:31:52.183Z,13.53
2023-04-14T17:34:20.576Z,13.42
2023-04-14T17:36:49.749Z,13.40
2023-04-14T17:39:20.278Z,13.29
2023-04-14T17:41:47.946Z,13.16
2023-04-14T17:44:15.526Z,13.03
2023-04-14T17:46:45.756Z,13.00
2023-04-14T17:49:14.883Z,12.89
2023-04-14T17:51:42.576Z,12.82
2023-04-14T17:54:10.152Z,12.80
2023-04-14T17:56:37.740Z,12.74
2023-04-14T17:59:05.648Z,12.58
2023-04-14T18:01:33.388Z,12.51
2023-04-14T18:04:01.223Z,12.37
2023-04-14T18:06:33.398Z,12.31
2023-04-14T18:09:01.273Z,12.18
2023-04-14T18:11:29.279Z,12.18
2023-04-14T18:13:58.037Z,12.04
2023-04-14T18:16:26.312Z,11.96
2023-04-14T18:18:54.931Z,11.89
2023-04-14T18:21:22.849Z,11.76
2023-04-14T18:28:53.358Z,11.55
2023-04-14T18:31:21.258Z,11.62
2023-04-14T18:33:48.897Z,11.57
2023-04-14T18:36:17.777Z,11.44
2023-04-14T18:38:45.534Z,11.39
2023-04-14T18:41:14.796Z,11.24
2023-04-14T18:43:42.734Z,11.13
2023-04-14T18:46:10.318Z,11.14
2023-04-14T18:48:37.942Z,11.06
2023-04-14T18:51:08.125Z,11.03
2023-04-14T18:53:35.964Z,10.96
2023-04-14T18:56:03.720Z,10.95
2023-04-14T18:58:32.900Z,10.91
2023-04-14T19:01:00.494Z,10.84
2023-04-14T19:03:28.394Z,10.78
2023-04-14T19:05:56.561Z,10.66
2023-04-14T19:08:24.222Z,10.78
2023-04-14T19:10:52.497Z,10.76
2023-04-14T19:13:20.173Z,10.66
2023-04-14T19:15:49.228Z,10.38
2023-04-14T19:18:17.725Z,10.40
2023-04-14T19:20:47.372Z,10.23
2023-04-14T19:23:14.932Z,10.33
2023-04-14T19:25:42.604Z,10.22
2023-04-14T19:28:16.435Z,10.24
2023-04-14T19:30:45.757Z,10.21
2023-04-14T19:33:15.440Z,10.15
2023-04-14T19:35:44.192Z,10.14
2023-04-14T19:38:11.966Z,10.06
2023-04-14T19:40:39.704Z,9.89
2023-04-14T19:43:07.298Z,9.88
2023-04-14T19:45:35.028Z,9.83
2023-04-14T19:48:16.107Z,9.74
2023-04-14T19:50:52.083Z,9.57
2023-04-14T19:53:20.537Z,9.50
2023-04-14T19:55:51.441Z,9.57
2023-04-14T19:58:21.358Z,9.54
2023-04-14T20:00:50.884Z,9.53
2023-04-14T20:03:19.232Z,9.57
2023-04-14T20:05:50.627Z,9.56
2023-04-14T20:08:20.312Z,9.54
2023-04-14T20:10:51.088Z,9.60
2023-04-14T20:13:19.884Z,9.70
2023-04-14T20:15:49.090Z,9.60
2023-04-14T20:18:18.207Z,9.49
2023-04-14T20:20:45.964Z,9.39
2023-04-14T20:23:13.616Z,9.31
2023-04-14T20:25:44.073Z,9.28
2023-04-14T20:28:11.824Z,9.28
2023-04-14T20:30:39.450Z,9.21
2023-04-14T20:33:07.069Z,9.11
2023-04-14T20:35:36.561Z,9.09
2023-04-14T20:38:04.339Z,9.14
2023-04-14T20:40:32.564Z,9.07
2023-04-14T20:43:01.527Z,9.05
2023-04-14T20:45:29.316Z,8.99
2023-04-14T20:47:57.137Z,8.96
2023-04-14T20:50:25.466Z,8.95
2023-04-14T20:52:53.707Z,8.89
2023-04-14T20:55:22.092Z,8.93
2023-04-14T20:57:50.040Z,8.88
2023-04-14T21:00:19.005Z,8.90
2023-04-14T21:02:47.354Z,8.79
2023-04-14T21:05:17.553Z,8.76
2023-04-14T21:07:45.915Z,8.78
2023-04-14T21:10:15.256Z,8.83
2023-04-14T21:15:15.932Z,8.86
2023-04-14T21:15:53.462Z,8.84
2023-04-14T21:18:20.388Z,8.75
2023-04-14T21:20:48.096Z,8.67
2023-04-14T21:23:16.128Z,8.66
2023-04-14T21:25:43.971Z,8.37
2023-04-14T21:28:11.591Z,8.33
2023-04-14T21:30:40.820Z,8.31
2023-04-14T21:33:08.917Z,8.43
2023-04-14T21:35:37.588Z,8.41
2023-04-14T21:38:05.534Z,8.39
2023-04-14T21:40:34.144Z,8.16
2023-04-14T21:43:02.157Z,7.91
2023-04-14T21:45:29.892Z,7.78
2023-04-14T21:47:59.368Z,7.82
2023-04-14T21:50:27.011Z,7.90
2023-04-14T21:52:54.771Z,7.88
2023-04-14T21:55:22.561Z,7.98
2023-04-14T21:57:52.035Z,7.91
2023-04-14T22:00:20.288Z,7.96
2023-04-14T22:02:48.693Z,8.06
2023-04-14T22:05:18.310Z,8.09
2023-04-14T22:07:46.357Z,8.17
2023-04-14T22:10:14.690Z,8.19
2023-04-14T22:12:44.675Z,8.14
2023-04-14T22:15:14.461Z,8.23
2023-04-14T22:17:43.666Z,8.07
2023-04-14T22:20:15.344Z,7.96
2023-04-14T22:22:44.773Z,7.90
2023-04-14T22:25:12.515Z,7.91
2023-04-14T22:27:40.205Z,7.89
2023-04-14T22:30:09.961Z,7.96
2023-04-14T22:32:37.687Z,7.76
2023-04-14T22:35:06.304Z,7.34
2023-04-14T22:37:34.513Z,7.24
2023-04-14T22:40:03.648Z,7.26
2023-04-14T22:42:32.025Z,7.22
2023-04-14T22:45:01.146Z,7.20
2023-04-14T22:47:28.911Z,7.19
2023-04-14T22:49:56.727Z,7.19
2023-04-14T22:52:24.497Z,7.09
2023-04-14T22:54:52.235Z,7.10
2023-04-14T22:57:21.625Z,7.07
2023-04-14T22:59:49.475Z,7.08
2023-04-14T23:02:17.225Z,7.07
2023-04-14T23:04:45.159Z,6.99
2023-04-14T23:07:13.566Z,7.12
2023-04-14T23:09:41.296Z,6.98
2023-04-14T23:12:09.767Z,7.01
2023-04-14T23:14:38.852Z,6.99
2023-04-14T23:17:06.702Z,7.00
2023-04-14T23:19:35.716Z,6.96
2023-04-14T23:22:04.465Z,7.07
2023-04-14T23:24:32.425Z,7.06
2023-04-14T23:27:00.452Z,7.05
2023-04-14T23:29:28.420Z,6.97
2023-04-14T23:31:57.578Z,6.99
2023-04-14T23:34:25.495Z,6.78
2023-04-14T23:36:53.458Z,6.64
2023-04-14T23:39:22.231Z,6.72
2023-04-14T23:41:50.016Z,6.63
2023-04-14T23:44:18.031Z,6.57
2023-04-14T23:46:46.106Z,6.55
2023-04-14T23:49:23.483Z,6.56
2023-04-14T23:51:53.179Z,6.60
2023-04-14T23:54:21.017Z,6.58
2023-04-14T23:56:48.939Z,6.75
2023-04-14T23:59:17.267Z,6.65
